CheckWX is a tool to help pilots better visualize weather data.  It is not intended as a substitute for an official pre-flight weather briefing.

13:35:24 UTC

CYKF METAR
Waterloo Airport
Kitchener, Canada
Current

35 mins ago

CYKF 251300Z AUTO 09010KT 9SM CLR 17/14 A3031 RMK SLP264 DENSITY ALT 1100FT
Observed
Aug-25 @ 13:00 UTC
Wind
  • 090° at 10 KTS
Visibility
9 SM
Flight Rules
VFR
Cloud Levels
  • Clear skies
Temperature
17°C / 63°F
Dewpoint
14°C / 57°F
Humidity
83%
Altimeter
30.31" Hg
Pressure
1026.42 hPa
Previous

2 hours ago

CYKF 251200Z AUTO 06006KT 9SM CLR 14/13 A3031 RMK SLP266
Observed
Aug-25 @ 12:00 UTC
Wind
  • 060° at 6 KTS
Visibility
9 SM
Flight Rules
VFR
Cloud Levels
  • Clear skies
Temperature
14°C / 57°F
Dewpoint
13°C / 55°F
Humidity
94%
Altimeter
30.31" Hg
Pressure
1026.42 hPa
Previous

3 hours ago

CYKF 251100Z AUTO 06004KT 9SM CLR 11/11 A3030 RMK SLP263
Observed
Aug-25 @ 11:00 UTC
Wind
  • 060° at 4 KTS
Visibility
9 SM
Flight Rules
VFR
Cloud Levels
  • Clear skies
Temperature
11°C / 52°F
Dewpoint
11°C / 52°F
Humidity
100%
Altimeter
30.3" Hg
Pressure
1026.12 hPa